Time;durP1;ratioP1;P1;durP2;ratioP2;P2;SDS_P1;SDS_P2;PMS_P1;PMS_P2;Temp;Humidity;BMP_temperature;BMP_pressure;BME280_temperature;BME280_humidity;BME280_pressure;Samples;Min_cycle;Max_cycle;Signal;HPM_P1;HPM_P2
2022/11/04 00:01:51;;;;;;;17.85;8.27;;;;;;;11.77;100.00;98680.69;12219605;19;20348;-81
2022/11/04 00:05:52;;;;;;;16.23;7.88;;;;;;;11.73;100.00;98681.56;12197738;19;20348;-82
2022/11/04 00:09:54;;;;;;;12.77;7.78;;;;;;;11.76;100.00;98684.59;12218013;19;20026;-81
2022/11/04 00:13:56;;;;;;;15.30;7.85;;;;;;;11.72;100.00;98686.28;12217630;19;20030;-81
2022/11/04 00:17:57;;;;;;;12.45;7.47;;;;;;;11.74;100.00;98675.75;12193929;19;20368;-81
2022/11/04 00:30:39;;;;;;;14.23;6.20;;;;;;;11.72;100.00;98658.69;12194234;19;20011;-82
2022/11/04 00:34:41;;;;;;;12.52;6.57;;;;;;;11.64;100.00;98651.00;12215158;19;20003;-81
2022/11/04 00:38:43;;;;;;;12.77;7.00;;;;;;;11.61;100.00;98654.31;12215931;19;20014;-81
2022/11/04 00:42:45;;;;;;;12.45;7.20;;;;;;;11.64;100.00;98651.00;12194905;19;20010;-81
2022/11/04 00:46:46;;;;;;;12.90;6.78;;;;;;;11.71;100.00;98657.00;12214172;19;20010;-82
2022/11/04 00:50:48;;;;;;;14.20;5.80;;;;;;;11.67;100.00;98674.44;12217166;19;20006;-82
2022/11/04 00:54:50;;;;;;;8.15;4.90;;;;;;;11.63;100.00;98672.25;12188850;19;20010;-82
2022/11/04 00:58:51;;;;;;;9.93;4.57;;;;;;;11.61;100.00;98682.72;12218790;19;20030;-81
2022/11/04 01:02:53;;;;;;;9.30;5.35;;;;;;;11.59;100.00;98684.13;12199701;19;20014;-81
2022/11/04 01:06:55;;;;;;;10.15;4.50;;;;;;;11.54;100.00;98678.63;12243370;19;20013;-80
2022/11/04 01:11:00;;;;;;;9.30;5.47;;;;;;;11.55;100.00;98686.63;12256140;19;20022;-81
2022/11/04 01:15:02;;;;;;;7.68;4.13;;;;;;;11.52;100.00;98686.38;12220315;19;20025;-80
2022/11/04 01:19:04;;;;;;;11.48;4.07;;;;;;;11.43;100.00;98716.47;12218468;19;20006;-80
2022/11/04 01:23:05;;;;;;;7.25;3.67;;;;;;;11.46;100.00;98723.38;12215846;19;20018;-81
2022/11/04 01:27:07;;;;;;;5.38;3.22;;;;;;;11.47;100.00;98725.00;12197715;19;20133;-80
2022/11/04 01:31:12;;;;;;;8.90;3.55;;;;;;;11.49;100.00;98722.81;12215461;19;20070;-80
2022/11/04 01:35:13;;;;;;;10.07;3.40;;;;;;;11.48;100.00;98718.38;12215693;19;20010;-80
2022/11/04 01:39:15;;;;;;;5.22;3.03;;;;;;;11.49;100.00;98714.53;12195071;19;20014;-80
2022/11/04 01:43:18;;;;;;;6.03;3.13;;;;;;;11.49;100.00;98731.91;12216007;19;20013;-80
2022/11/04 01:47:33;;;;;;;6.18;2.50;;;;;;;11.43;100.00;98733.03;12218562;19;20108;-80
2022/11/04 01:51:39;;;;;;;4.30;2.35;;;;;;;11.39;100.00;98738.28;12193134;19;20067;-81
2022/11/04 01:55:50;;;;;;;3.33;1.75;;;;;;;11.43;100.00;98738.53;12216309;19;20010;-81
2022/11/04 01:59:52;;;;;;;4.25;1.55;;;;;;;11.49;100.00;98731.09;12193144;19;20377;-80
2022/11/04 02:08:20;;;;;;;4.05;1.35;;;;;;;11.49;100.00;98736.59;12216168;19;20007;-80
2022/11/04 02:16:48;;;;;;;3.78;1.35;;;;;;;11.51;100.00;98759.19;12243588;19;19995;-79
2022/11/04 02:21:05;;;;;;;3.33;2.05;;;;;;;11.54;100.00;98751.19;12277198;19;20019;-79
2022/11/04 02:25:28;;;;;;;2.67;1.58;;;;;;;11.48;100.00;98754.25;12246666;19;20014;-80
2022/11/04 02:29:45;;;;;;;;;;;;;;;11.39;100.00;98754.00;12232793;19;20444;-80
2022/11/04 02:34:06;;;;;;;3.85;1.40;;;;;;;11.33;100.00;98753.22;12209185;19;19911;-80
2022/11/04 02:38:49;;;;;;;1.45;1.02;;;;;;;11.24;100.00;98765.91;12229718;19;20022;-80
2022/11/04 02:43:00;;;;;;;4.13;1.27;;;;;;;11.16;100.00;98769.25;12204274;19;20010;-80
2022/11/04 02:47:07;;;;;;;2.67;1.30;;;;;;;11.08;100.00;98770.63;12234798;19;20018;-79
2022/11/04 02:51:20;;;;;;;3.00;0.90;;;;;;;11.09;100.00;98772.28;12251303;19;20010;-79
2022/11/04 02:55:26;;;;;;;1.73;1.02;;;;;;;11.08;100.00;98781.66;12223821;19;20077;-79
2022/11/04 02:59:39;;;;;;;4.47;0.90;;;;;;;11.07;100.00;98784.72;12218091;19;20054;-79
2022/11/04 03:03:47;;;;;;;2.05;0.82;;;;;;;11.01;100.00;98783.06;12197767;19;20095;-79
2022/11/04 03:07:52;;;;;;;4.20;1.13;;;;;;;10.93;100.00;98776.16;12221091;19;20014;-78
2022/11/04 03:12:01;;;;;;;3.60;0.93;;;;;;;10.83;100.00;98777.00;12198344;19;20018;-78
2022/11/04 03:16:09;;;;;;;2.67;1.05;;;;;;;10.76;100.00;98789.41;12219243;19;20014;-78
2022/11/04 03:20:19;;;;;;;2.33;0.85;;;;;;;10.67;100.00;98792.69;12215559;19;20495;-79
2022/11/04 03:24:20;;;;;;;3.00;1.15;;;;;;;10.59;100.00;98806.19;12197677;19;20014;-78
2022/11/04 03:28:51;;;;;;;1.75;1.02;;;;;;;10.63;100.00;98788.84;12217675;19;20006;-78
2022/11/04 03:33:05;;;;;;;3.65;1.33;;;;;;;10.66;100.00;98804.84;12196436;19;20346;-79
2022/11/04 03:37:07;;;;;;;1.98;1.23;;;;;;;10.71;100.00;98802.09;12222486;19;20035;-79
2022/11/04 03:41:15;;;;;;;3.67;1.40;;;;;;;10.77;100.00;98832.38;12219638;19;20010;-78
2022/11/04 03:45:17;;;;;;;4.68;1.65;;;;;;;10.83;100.00;98823.03;12196382;19;20046;-78
2022/11/04 03:49:23;;;;;;;2.95;1.40;;;;;;;10.84;100.00;98824.69;12220235;19;20007;-78
2022/11/04 03:53:27;;;;;;;4.95;1.63;;;;;;;10.83;100.00;98823.03;12220755;19;20345;-79
2022/11/04 03:57:40;;;;;;;4.07;1.63;;;;;;;10.77;100.00;98838.75;12194668;19;20492;-78
2022/11/04 04:01:50;;;;;;;4.80;1.80;;;;;;;10.74;100.00;98828.28;12220261;19;20017;-79
2022/11/04 04:05:58;;;;;;;5.78;1.85;;;;;;;10.71;100.00;98824.13;12220477;19;20014;-78
2022/11/04 04:14:43;;;;;;;5.30;1.40;;;;;;;10.49;100.00;98802.34;12221067;19;20006;-79
2022/11/04 04:18:51;;;;;;;3.00;1.67;;;;;;;10.38;100.00;98819.13;12192123;19;20583;-78
2022/11/04 04:27:47;;;;;;;4.72;1.90;;;;;;;10.22;100.00;98819.06;12194701;19;20015;-78
2022/11/04 04:31:51;;;;;;;3.65;1.80;;;;;;;10.18;100.00;98819.88;12215702;19;20390;-79
2022/11/04 04:35:55;;;;;;;7.10;1.65;;;;;;;10.11;100.00;98814.63;12202891;19;20699;-79
2022/11/04 04:48:47;;;;;;;6.50;2.47;;;;;;;9.92;100.00;98795.03;12193433;19;20053;-79
2022/11/04 04:52:52;;;;;;;5.70;2.17;;;;;;;9.92;100.00;98791.47;12213711;19;20504;-79
2022/11/04 04:56:54;;;;;;;8.65;2.25;;;;;;;9.89;100.00;98803.81;12192938;19;20026;-78
2022/11/04 05:00:55;;;;;;;5.20;1.95;;;;;;;9.84;100.00;98792.78;12219656;19;20007;-80
2022/11/04 05:04:58;;;;;;;6.03;1.77;;;;;;;9.79;100.00;98790.03;12218704;19;20455;-80
2022/11/04 05:09:00;;;;;;;8.18;2.00;;;;;;;9.72;100.00;98792.19;12196928;19;20046;-80
2022/11/04 05:17:22;;;;;;;4.60;1.67;;;;;;;9.65;100.00;98799.88;12213381;19;20047;-78
2022/11/04 05:21:23;;;;;;;7.97;1.83;;;;;;;9.65;100.00;98808.13;12194043;19;20038;-79
2022/11/04 05:25:25;;;;;;;6.10;1.58;;;;;;;9.63;100.00;98807.56;12214775;19;20567;-79
2022/11/04 05:29:26;;;;;;;5.32;2.50;;;;;;;9.61;100.00;98796.00;12213862;19;20011;-79
2022/11/04 05:33:28;;;;;;;4.55;1.58;;;;;;;9.57;100.00;98793.78;12193927;19;20047;-79
2022/11/04 05:37:30;;;;;;;7.90;1.98;;;;;;;9.57;100.00;98787.47;12214774;19;20002;-79
2022/11/04 05:41:32;;;;;;;6.97;2.22;;;;;;;9.55;100.00;98790.50;12213512;19;20014;-79
2022/11/04 05:45:35;;;;;;;11.50;1.65;;;;;;;9.57;100.00;98785.53;12190706;19;20010;-80
2022/11/04 05:49:36;;;;;;;4.20;1.55;;;;;;;9.65;100.00;98797.97;12214262;19;20022;-79
2022/11/04 05:53:38;;;;;;;4.60;1.50;;;;;;;9.68;100.00;98791.09;12210921;19;20010;-79
2022/11/04 05:57:39;;;;;;;5.40;1.60;;;;;;;9.73;100.00;98789.19;12191721;19;20006;-79
2022/11/04 06:01:42;;;;;;;7.07;2.30;;;;;;;9.81;100.00;98779.59;12213434;19;20724;-79
2022/11/04 06:05:44;;;;;;;5.03;1.52;;;;;;;9.91;100.00;98776.88;12219723;19;20154;-79
2022/11/04 06:09:46;;;;;;;4.53;1.85;;;;;;;9.98;100.00;98773.84;12193843;19;20041;-79
2022/11/04 06:13:48;;;;;;;4.05;1.40;;;;;;;10.00;100.00;98769.75;12217362;19;20080;-79
2022/11/04 06:17:50;;;;;;;7.43;1.60;;;;;;;10.05;100.00;98774.41;12216678;19;20034;-80
2022/11/04 06:21:52;;;;;;;4.43;1.70;;;;;;;10.11;100.00;98783.50;12195014;19;20015;-80
2022/11/04 06:25:54;;;;;;;7.78;1.30;;;;;;;10.13;100.00;98781.31;12215532;19;20067;-80
2022/11/04 06:29:55;;;;;;;6.50;1.85;;;;;;;10.20;100.00;98790.13;12187861;19;20011;-80
2022/11/04 06:33:57;;;;;;;4.97;1.63;;;;;;;10.24;100.00;98802.28;12203817;19;20015;-80
2022/11/04 06:37:59;;;;;;;5.72;1.35;;;;;;;10.37;100.00;98810.03;12197131;19;20369;-83
2022/11/04 06:42:01;;;;;;;5.18;1.42;;;;;;;10.52;100.00;98805.66;12183819;19;20428;-83
2022/11/04 06:46:04;;;;;;;4.22;1.35;;;;;;;10.59;100.00;98806.19;12212230;19;20802;-83
2022/11/04 06:50:06;;;;;;;4.88;2.38;;;;;;;10.69;100.00;98817.25;12217492;19;20002;-83
2022/11/04 06:54:07;;;;;;;4.35;1.27;;;;;;;10.76;100.00;98805.94;12169484;19;20003;-82
2022/11/04 06:58:09;;;;;;;3.35;1.20;;;;;;;10.83;100.00;98812.00;12208971;19;20010;-82
2022/11/04 07:02:11;;;;;;;7.90;2.53;;;;;;;10.89;100.00;98817.25;12221117;19;20007;-83
2022/11/04 07:06:13;;;;;;;4.78;1.48;;;;;;;10.98;100.00;98805.66;12203279;19;20027;-82
2022/11/04 07:10:16;;;;;;;4.93;1.55;;;;;;;11.05;100.00;98826.31;12221824;19;20030;-83
2022/11/04 07:14:17;;;;;;;7.28;1.30;;;;;;;11.09;100.00;98821.91;12223841;19;20034;-83
2022/11/04 07:18:19;;;;;;;4.75;1.48;;;;;;;11.15;100.00;98825.47;12202693;19;20014;-82
2022/11/04 07:22:21;;;;;;;4.83;1.70;;;;;;;11.22;100.00;98837.06;12222010;19;20027;-83
2022/11/04 07:26:23;;;;;;;7.28;1.38;;;;;;;11.28;100.00;98837.88;12223878;19;20325;-83
2022/11/04 07:30:26;;;;;;;5.15;1.25;;;;;;;11.31;100.00;98843.66;12212533;19;20010;-82
2022/11/04 07:34:27;;;;;;;5.97;1.25;;;;;;;11.35;100.00;98860.47;12275937;19;20388;-83
2022/11/04 07:38:29;;;;;;;6.65;1.67;;;;;;;11.38;100.00;98868.19;12252893;19;20003;-84
2022/11/04 07:42:31;;;;;;;2.70;1.20;;;;;;;11.40;100.00;98866.81;12223017;19;20062;-84
2022/11/04 07:46:40;;;;;;;4.15;1.23;;;;;;;11.49;100.00;98871.78;12244204;19;20014;-84
2022/11/04 07:50:41;;;;;;;6.17;1.43;;;;;;;11.53;100.00;98868.16;12243438;19;20460;-84
2022/11/04 07:54:43;;;;;;;5.57;1.30;;;;;;;11.56;100.00;98869.53;12214491;19;20263;-83
2022/11/04 07:58:45;;;;;;;6.33;1.33;;;;;;;11.62;100.00;98868.41;12239607;19;20228;-83
2022/11/04 08:02:47;;;;;;;3.97;1.58;;;;;;;11.70;100.00;98862.34;12240613;19;20305;-83
2022/11/04 08:06:49;;;;;;;10.43;1.33;;;;;;;11.75;100.00;98856.81;12217456;19;20026;-83
2022/11/04 08:10:54;;;;;;;2.97;1.08;;;;;;;11.77;100.00;98851.00;12228742;19;20014;-84
2022/11/04 08:14:55;;;;;;;3.17;1.10;;;;;;;11.83;100.00;98853.44;12211121;19;20022;-83
2022/11/04 08:19:01;;;;;;;3.45;1.23;;;;;;;11.91;100.00;98851.25;12232566;19;20011;-84
2022/11/04 08:23:03;;;;;;;7.32;1.13;;;;;;;11.96;100.00;98831.94;12231571;19;20014;-84
2022/11/04 08:27:06;;;;;;;7.57;2.07;;;;;;;12.05;100.00;98838.50;12208631;19;20046;-82
2022/11/04 08:31:25;;;;;;;3.17;1.05;;;;;;;12.17;100.00;98840.94;12225347;19;20124;-83
2022/11/04 08:35:27;;;;;;;5.15;1.20;;;;;;;12.25;100.00;98843.09;12239530;19;20010;-84
2022/11/04 08:39:29;;;;;;;1.85;0.80;;;;;;;12.29;100.00;98846.94;12250619;19;20027;-83
2022/11/04 08:43:32;;;;;;;2.38;1.00;;;;;;;12.38;100.00;98852.69;12270758;19;20024;-84
2022/11/04 08:47:34;;;;;;;4.93;1.00;;;;;;;12.46;100.00;98846.56;12244748;19;20011;-85
2022/11/04 08:51:39;;;;;;;6.25;1.52;;;;;;;12.50;100.00;98842.94;12217371;19;20011;-83
2022/11/04 08:55:41;;;;;;;3.17;1.20;;;;;;;12.53;100.00;98836.03;12220161;19;20467;-83
2022/11/04 08:59:43;;;;;;;2.63;1.10;;;;;;;12.60;100.00;98838.47;12225440;19;20034;-83
2022/11/04 09:03:45;;;;;;;4.32;1.25;;;;;;;12.74;100.00;98847.75;12206427;19;20011;-83
2022/11/04 09:07:48;;;;;;;2.55;1.17;;;;;;;12.91;100.00;98852.88;12236132;19;20534;-84
2022/11/04 09:11:49;;;;;;;3.88;1.45;;;;;;;12.99;100.00;98858.59;12231182;19;20023;-83
2022/11/04 09:15:51;;;;;;;3.88;1.45;;;;;;;13.04;100.00;98860.53;12233788;19;20369;-86
2022/11/04 09:19:53;;;;;;;3.78;1.30;;;;;;;13.05;100.00;98859.41;12222875;19;20034;-85
2022/11/04 09:23:55;;;;;;;3.58;0.90;;;;;;;13.13;100.00;98855.19;12233635;19;20042;-84
2022/11/04 09:27:56;;;;;;;2.72;0.88;;;;;;;13.30;100.00;98863.94;12208477;19;20074;-83
2022/11/04 09:31:59;;;;;;;5.25;1.15;;;;;;;13.33;100.00;98868.06;12215280;19;20014;-83
2022/11/04 09:36:01;;;;;;;6.18;1.40;;;;;;;13.52;100.00;98863.41;12219327;19;20011;-84
2022/11/04 09:40:03;;;;;;;4.13;1.67;;;;;;;13.58;100.00;98865.03;12200428;19;20015;-85
2022/11/04 09:44:27;;;;;;;3.63;1.10;;;;;;;13.58;100.00;98869.75;12213516;19;20083;-84
2022/11/04 09:48:45;;;;;;;4.80;1.25;;;;;;;13.52;100.00;98880.03;12208172;19;20010;-85
2022/11/04 09:52:54;;;;;;;3.95;1.40;;;;;;;13.63;100.00;98889.06;12224841;19;20011;-85
2022/11/04 09:57:00;;;;;;;16.08;1.75;;;;;;;13.73;100.00;98897.25;12210065;19;20010;-84
2022/11/04 10:01:11;;;;;;;3.30;1.20;;;;;;;13.86;100.00;98899.34;12190377;19;20086;-84
2022/11/04 10:05:12;;;;;;;7.95;1.10;;;;;;;14.02;100.00;98901.94;12220897;19;20082;-85
2022/11/04 10:09:45;;;;;;;4.55;1.45;;;;;;;14.20;98.14;98897.56;12228655;19;20471;-85
2022/11/04 10:14:30;;;;;;;3.70;1.25;;;;;;;14.15;96.69;98901.22;12206191;19;20010;-86
2022/11/04 10:18:48;;;;;;;6.53;1.40;;;;;;;14.17;97.13;98898.16;12199018;19;20468;-87
2022/11/04 10:23:32;;;;;;;4.95;1.80;;;;;;;14.16;95.02;98888.19;12218897;19;20011;-87
2022/11/04 10:32:46;;;;;;;3.90;1.40;;;;;;;14.05;94.31;98885.53;12220004;19;20006;-88
2022/11/04 10:36:48;;;;;;;4.72;1.50;;;;;;;13.99;95.49;98886.72;12225137;19;20018;-89
2022/11/04 10:40:54;;;;;;;9.20;1.50;;;;;;;14.02;94.78;98875.06;12237571;19;20381;-85
2022/11/04 10:44:56;;;;;;;4.97;1.00;;;;;;;13.97;94.32;98875.09;12230977;19;20014;-87
2022/11/04 10:49:13;;;;;;;3.13;1.15;;;;;;;13.90;93.16;98866.34;12209717;19;20007;-86
2022/11/04 10:53:21;;;;;;;3.78;1.30;;;;;;;13.89;92.86;98865.53;12233055;19;20018;-88
2022/11/04 10:57:27;;;;;;;6.18;1.45;;;;;;;13.95;93.79;98865.44;12232765;19;20014;-86
2022/11/04 11:01:33;;;;;;;4.10;1.30;;;;;;;14.07;93.82;98854.78;12201097;19;20082;-87
2022/11/04 11:05:35;;;;;;;6.45;1.30;;;;;;;14.26;92.89;98852.03;12227469;19;20045;-87
2022/11/04 11:09:52;;;;;;;6.15;1.52;;;;;;;14.40;92.35;98854.91;12199380;19;20338;-86
2022/11/04 11:13:57;;;;;;;6.07;1.20;;;;;;;14.48;92.70;98855.03;12222866;19;20003;-85
2022/11/04 11:18:12;;;;;;;4.75;1.17;;;;;;;14.70;91.90;98857.28;12222427;19;20010;-88
2022/11/04 11:22:30;;;;;;;4.53;1.20;;;;;;;14.77;90.75;98854.13;12197574;19;20023;-89
2022/11/04 11:26:32;;;;;;;4.10;1.13;;;;;;;15.00;91.07;98850.41;12217685;19;20006;-88
2022/11/04 11:30:43;;;;;;;5.57;1.15;;;;;;;15.19;89.34;98847.59;12195446;19;20003;-86
2022/11/04 11:34:47;;;;;;;2.75;1.42;;;;;;;15.19;88.50;98846.78;12222202;19;20010;-86
2022/11/04 11:39:04;;;;;;;3.60;1.13;;;;;;;15.18;89.44;98851.50;12224624;19;20021;-87
2022/11/04 11:43:06;;;;;;;4.18;1.00;;;;;;;15.23;89.17;98853.38;12201898;19;20372;-87
2022/11/04 11:47:30;;;;;;;6.80;1.48;;;;;;;15.22;88.07;98844.22;12225134;19;20099;-87
2022/11/04 11:51:42;;;;;;;4.40;1.40;;;;;;;15.06;87.88;98837.28;12201346;19;20011;-87
2022/11/04 11:56:13;;;;;;;4.13;1.10;;;;;;;15.11;85.43;98844.69;12223199;19;20032;-86
2022/11/04 12:00:19;;;;;;;6.55;1.65;;;;;;;15.14;86.78;98842.16;12216677;19;20010;-87
2022/11/04 12:04:42;;;;;;;6.78;1.40;;;;;;;15.48;87.66;98830.69;12197131;19;20010;-87
2022/11/04 12:09:18;;;;;;;4.03;1.50;;;;;;;15.70;84.64;98835.63;12220910;19;20010;-86
2022/11/04 12:13:43;;;;;;;6.72;1.58;;;;;;;15.72;83.74;98832.50;12201091;19;20002;-87
2022/11/04 12:17:52;;;;;;;4.85;1.50;;;;;;;15.85;83.26;98830.84;12218675;19;20349;-88
2022/11/04 12:22:08;;;;;;;5.25;1.65;;;;;;;16.34;82.16;98823.72;12196865;19;20014;-88
2022/11/04 12:26:11;;;;;;;4.45;1.42;;;;;;;16.31;82.93;98816.00;12221355;19;20076;-88
2022/11/04 12:30:17;;;;;;;5.75;1.40;;;;;;;16.21;82.24;98821.78;12218347;19;20062;-87
2022/11/04 12:34:52;;;;;;;4.32;1.95;;;;;;;16.02;81.29;98822.72;12199489;19;20618;-88
2022/11/04 12:39:33;;;;;;;6.45;1.67;;;;;;;15.80;83.24;98833.75;12216719;19;20010;-87
2022/11/04 12:44:15;;;;;;;6.82;1.63;;;;;;;15.79;83.83;98827.34;12206768;19;20035;-87
2022/11/04 12:48:51;;;;;;;3.30;1.43;;;;;;;15.74;83.77;98835.81;12277593;19;20347;-86
2022/11/04 12:53:14;;;;;;;4.63;1.90;;;;;;;15.77;84.10;98834.38;12216415;19;20405;-87
2022/11/04 12:57:27;;;;;;;6.30;2.17;;;;;;;15.79;83.47;98835.69;12212285;19;20464;-88
2022/11/04 13:01:38;;;;;;;3.85;2.13;;;;;;;15.83;82.92;98849.81;12184453;19;20540;-88
2022/11/04 13:05:45;;;;;;;;;;;;;;;15.71;82.91;98847.53;12211559;19;20011;-88
2022/11/04 13:09:53;;;;;;;5.07;1.42;;;;;;;15.58;82.87;98848.28;12195015;19;19910;-87
2022/11/04 13:14:20;;;;;;;7.72;1.75;;;;;;;15.38;83.55;98855.88;12216250;19;20006;-87
2022/11/04 13:18:27;;;;;;;8.18;1.67;;;;;;;15.48;84.35;98850.13;12215173;19;20018;-88
2022/11/04 13:22:35;;;;;;;5.47;1.75;;;;;;;15.66;84.30;98864.25;12194204;19;20031;-88
2022/11/04 13:26:37;;;;;;;4.47;1.85;;;;;;;15.80;83.18;98876.25;12220205;19;20103;-88
2022/11/04 13:31:01;;;;;;;6.47;1.40;;;;;;;15.93;82.91;98872.63;12202095;19;20103;-88
2022/11/04 13:35:18;;;;;;;4.35;1.38;;;;;;;15.98;81.50;98879.25;12250931;19;20018;-88
2022/11/04 13:39:47;;;;;;;6.63;1.25;;;;;;;15.83;80.70;98869.25;12225976;19;20015;-88
2022/11/04 13:44:02;;;;;;;5.07;1.65;;;;;;;15.64;81.90;98897.06;12199356;19;20014;-88
2022/11/04 13:48:10;;;;;;;4.60;1.85;;;;;;;15.45;82.38;98891.56;12223924;19;20007;-88
2022/11/04 13:52:13;;;;;;;5.55;2.33;;;;;;;15.29;83.22;98893.78;12200510;19;20068;-88
2022/11/04 13:56:36;;;;;;;5.53;1.83;;;;;;;15.21;83.81;98900.84;12224928;19;20500;-88
2022/11/04 14:00:38;;;;;;;5.20;1.70;;;;;;;15.25;84.56;98909.38;12196094;19;20074;-87
2022/11/04 14:04:42;;;;;;;6.63;2.15;;;;;;;15.27;84.76;98910.75;12219763;19;20770;-87
2022/11/04 14:09:21;;;;;;;5.38;1.73;;;;;;;15.26;85.04;98922.16;12228174;19;20003;-88
2022/11/04 14:13:26;;;;;;;3.60;1.63;;;;;;;15.24;84.90;98921.63;12211461;19;20014;-87
2022/11/04 14:17:33;;;;;;;7.90;1.90;;;;;;;15.17;85.44;98932.25;12235573;19;20010;-88
2022/11/04 14:22:06;;;;;;;11.30;2.05;;;;;;;15.06;85.58;98936.34;12208752;19;20010;-88
2022/11/04 14:26:17;;;;;;;5.95;1.90;;;;;;;14.88;85.86;98930.50;12231528;19;20046;-86
2022/11/04 14:30:37;;;;;;;7.60;2.28;;;;;;;14.80;86.25;98933.94;12230716;19;20718;-88
2022/11/04 14:34:41;;;;;;;7.70;1.30;;;;;;;14.71;86.74;98931.00;12206908;19;20488;-87
2022/11/04 14:38:50;;;;;;;4.68;1.30;;;;;;;14.55;87.15;98938.72;12225565;19;20035;-87
2022/11/04 14:42:56;;;;;;;8.35;1.38;;;;;;;14.43;87.45;98938.28;12202184;19;20014;-88
2022/11/04 14:47:20;;;;;;;5.47;1.52;;;;;;;14.39;88.31;98941.94;12227732;19;20011;-87
2022/11/04 14:51:29;;;;;;;6.18;1.70;;;;;;;14.33;89.00;98942.00;12224519;19;20007;-87
2022/11/04 14:55:31;;;;;;;6.18;1.90;;;;;;;14.35;88.94;98942.53;12204629;19;20086;-86
2022/11/04 14:59:52;;;;;;;10.48;1.95;;;;;;;14.40;89.09;98943.59;12208334;19;20007;-90
2022/11/04 15:04:29;;;;;;;4.82;1.80;;;;;;;14.35;89.41;98945.31;12165644;19;20058;-89
2022/11/04 15:08:35;;;;;;;3.28;1.30;;;;;;;14.22;89.94;98948.81;12214399;19;20018;-86
2022/11/04 15:12:49;;;;;;;9.02;1.73;;;;;;;14.12;89.86;98952.50;12201022;19;20010;-87
2022/11/04 15:16:56;;;;;;;4.55;1.50;;;;;;;13.86;90.14;98962.19;12234969;19;20037;-86
2022/11/04 15:21:01;;;;;;;3.35;1.45;;;;;;;13.64;91.34;98971.00;12212388;19;20543;-87
2022/11/04 15:25:07;;;;;;;9.27;1.77;;;;;;;13.47;92.88;98970.56;12192019;19;20038;-87
2022/11/04 15:29:11;;;;;;;7.40;1.70;;;;;;;13.34;93.88;98974.84;12228453;19;20447;-87
2022/11/04 15:33:16;;;;;;;6.05;1.70;;;;;;;13.20;95.26;98980.97;12232470;19;20070;-87
2022/11/04 15:37:21;;;;;;;4.88;1.40;;;;;;;13.13;96.52;98979.66;12201892;19;20006;-86
2022/11/04 15:45:45;;;;;;;6.70;1.58;;;;;;;12.98;98.84;98999.94;12203200;19;20003;-87
2022/11/04 15:49:50;;;;;;;6.93;2.20;;;;;;;12.90;99.66;99000.53;12239971;19;20014;-85
2022/11/04 15:54:06;;;;;;;12.88;3.70;;;;;;;12.78;100.00;99009.16;12271889;19;20011;-85
2022/11/04 15:58:13;;;;;;;5.80;3.38;;;;;;;12.58;100.00;99012.84;12252066;19;20047;-85
2022/11/04 16:02:33;;;;;;;10.85;2.85;;;;;;;12.42;100.00;99014.03;12224199;19;20010;-86
2022/11/04 16:06:38;;;;;;;9.15;2.92;;;;;;;12.23;100.00;99014.63;12212334;19;20010;-87
2022/11/04 16:10:40;;;;;;;10.38;2.90;;;;;;;12.05;100.00;99023.50;12222157;19;20014;-87
2022/11/04 16:14:50;;;;;;;6.93;3.10;;;;;;;11.90;100.00;99029.03;12221080;19;20361;-86
2022/11/04 16:18:55;;;;;;;7.03;2.70;;;;;;;11.74;100.00;99030.94;12199739;19;20011;-87
2022/11/04 16:23:01;;;;;;;9.32;3.38;;;;;;;11.62;100.00;99034.00;12218917;19;20396;-87
2022/11/04 16:27:14;;;;;;;7.32;2.30;;;;;;;11.49;100.00;99034.53;12225038;19;20088;-85
2022/11/04 16:31:21;;;;;;;5.07;2.20;;;;;;;11.37;100.00;99043.91;12204492;19;20075;-85
2022/11/04 16:35:26;;;;;;;4.93;2.35;;;;;;;11.27;100.00;99045.81;12219946;19;20014;-86
2022/11/04 16:39:27;;;;;;;9.25;2.75;;;;;;;11.21;100.00;99050.47;12217081;19;20014;-87
2022/11/04 16:43:29;;;;;;;12.60;3.00;;;;;;;11.15;100.00;99051.56;12194506;19;20006;-85
2022/11/04 16:47:38;;;;;;;5.93;2.72;;;;;;;11.08;100.00;99062.88;12227733;19;20021;-85
2022/11/04 16:51:41;;;;;;;7.65;2.63;;;;;;;11.00;100.00;99062.56;12196303;19;20373;-85
2022/11/04 16:55:43;;;;;;;6.55;2.75;;;;;;;10.91;100.00;99068.59;12224558;19;20028;-85
2022/11/04 16:59:45;;;;;;;5.07;2.00;;;;;;;10.86;100.00;99076.88;12220662;19;20039;-85
2022/11/04 17:03:47;;;;;;;10.18;3.22;;;;;;;10.80;100.00;99077.94;12196676;19;20334;-85
2022/11/04 17:07:50;;;;;;;10.27;3.30;;;;;;;10.72;100.00;99082.03;12222853;19;20010;-85
2022/11/04 17:11:56;;;;;;;8.68;2.90;;;;;;;10.66;100.00;99076.78;12258074;19;20033;-85
2022/11/04 17:15:59;;;;;;;7.15;3.13;;;;;;;10.63;100.00;99074.56;12206458;19;20023;-86
2022/11/04 17:20:00;;;;;;;6.72;3.63;;;;;;;10.62;100.00;99086.66;12224578;19;20010;-85
2022/11/04 17:24:03;;;;;;;8.95;4.90;;;;;;;10.61;100.00;99096.84;12222791;19;20100;-85
2022/11/04 17:28:05;;;;;;;6.90;3.00;;;;;;;10.65;100.00;99102.69;12200313;19;20476;-85
2022/11/04 17:32:08;;;;;;;6.97;3.35;;;;;;;10.71;100.00;99118.13;12219322;19;20015;-84
2022/11/04 17:36:16;;;;;;;10.85;3.40;;;;;;;10.77;100.00;99121.72;12219092;19;20011;-85
2022/11/04 17:40:19;;;;;;;9.50;3.90;;;;;;;10.83;100.00;99123.44;12196155;19;20024;-85
2022/11/04 17:44:21;;;;;;;6.50;3.42;;;;;;;10.90;100.00;99124.84;12217812;19;20026;-86
2022/11/04 17:48:23;;;;;;;8.95;3.78;;;;;;;10.99;100.00;99135.34;12219847;19;20520;-85
2022/11/04 17:52:25;;;;;;;6.13;3.75;;;;;;;11.07;100.00;99138.41;12199243;19;20007;-85
2022/11/04 17:56:27;;;;;;;;;;;;;;;11.15;100.00;99150.84;12235271;19;20011;-86
2022/11/04 18:00:29;;;;;;;5.93;3.55;;;;;;;11.20;100.00;99153.63;12260834;19;19906;-85
2022/11/04 18:04:31;;;;;;;6.55;3.50;;;;;;;11.25;100.00;99156.41;12201956;19;20090;-85
2022/11/04 18:08:33;;;;;;;12.00;4.00;;;;;;;11.31;100.00;99158.09;12221685;19;20420;-85
2022/11/04 18:12:40;;;;;;;7.88;3.72;;;;;;;11.35;100.00;99156.44;12218744;19;20038;-85
2022/11/04 18:16:43;;;;;;;6.30;3.88;;;;;;;11.34;100.00;99160.31;12199662;19;20084;-84
2022/11/04 18:20:46;;;;;;;9.90;4.03;;;;;;;11.28;100.00;99172.41;12217604;19;20011;-85
2022/11/04 18:24:47;;;;;;;6.72;4.53;;;;;;;11.22;100.00;99167.97;12190362;19;20003;-85
2022/11/04 18:28:50;;;;;;;9.07;4.15;;;;;;;11.16;100.00;99175.41;12215715;19;20011;-85
2022/11/04 18:32:51;;;;;;;7.70;3.78;;;;;;;11.12;100.00;99178.94;12219870;19;20050;-85
2022/11/04 18:36:54;;;;;;;11.45;4.47;;;;;;;11.07;100.00;99181.72;12207143;19;20003;-84
2022/11/04 18:40:56;;;;;;;9.73;4.70;;;;;;;10.98;100.00;99178.63;12220175;19;20101;-84
2022/11/04 18:44:58;;;;;;;9.20;4.18;;;;;;;10.92;100.00;99190.72;12214282;19;20014;-85
2022/11/04 18:49:00;;;;;;;12.13;4.75;;;;;;;10.90;100.00;99198.44;12200586;19;20024;-85
2022/11/04 18:53:01;;;;;;;8.13;4.30;;;;;;;10.90;100.00;99202.00;12224750;19;20011;-84
2022/11/04 18:57:03;;;;;;;11.68;4.60;;;;;;;10.91;100.00;99206.41;12224841;19;20979;-85
2022/11/04 19:01:27;;;;;;;10.13;4.57;;;;;;;10.94;100.00;99214.16;12197936;19;20036;-85
2022/11/04 19:05:29;;;;;;;8.32;4.78;;;;;;;10.99;100.00;99212.53;12220802;19;20027;-85
2022/11/04 19:09:31;;;;;;;8.27;4.63;;;;;;;11.03;100.00;99213.66;12223315;19;20014;-85
2022/11/04 19:13:52;;;;;;;9.25;4.60;;;;;;;11.10;100.00;99228.03;12202627;19;20050;-84
2022/11/04 19:17:57;;;;;;;9.63;4.57;;;;;;;11.16;100.00;99235.25;12228240;19;20007;-86
2022/11/04 19:21:59;;;;;;;12.35;5.07;;;;;;;11.20;100.00;99247.38;12208096;19;20014;-84
2022/11/04 19:26:09;;;;;;;12.02;5.78;;;;;;;11.22;100.00;99236.94;12224948;19;20010;-84
2022/11/04 19:30:11;;;;;;;12.02;5.10;;;;;;;11.26;100.00;99242.72;12223319;19;20043;-85
2022/11/04 19:34:13;;;;;;;10.40;5.10;;;;;;;11.29;100.00;99245.78;12200673;19;20007;-84
2022/11/04 19:38:16;;;;;;;11.98;5.00;;;;;;;11.33;100.00;99257.94;12217964;19;20007;-85
2022/11/04 19:46:39;;;;;;;8.82;4.88;;;;;;;11.39;100.00;99262.41;12198422;19;20006;-84
2022/11/04 19:50:46;;;;;;;9.60;4.65;;;;;;;11.41;100.00;99271.22;12214885;19;20007;-84
2022/11/04 19:54:48;;;;;;;10.23;5.97;;;;;;;11.44;100.00;99271.78;12196589;19;20010;-84